createdAt,value
2022-12-27T00:02:10.706Z,3.10
2022-12-27T00:04:40.057Z,3.27
2022-12-27T00:07:09.474Z,3.53
2022-12-27T00:09:41.522Z,3.27
2022-12-27T00:12:10.956Z,3.67
2022-12-27T00:14:40.302Z,3.17
2022-12-27T00:17:09.711Z,2.93
2022-12-27T00:19:39.085Z,2.93
2022-12-27T00:22:09.655Z,3.80
2022-12-27T00:24:41.595Z,2.90
2022-12-27T00:27:11.334Z,3.27
2022-12-27T00:29:40.723Z,2.80
2022-12-27T00:32:10.112Z,3.03
2022-12-27T00:34:39.480Z,3.30
2022-12-27T00:37:09.307Z,2.60
2022-12-27T00:39:42.121Z,3.07
2022-12-27T00:42:11.589Z,2.77
2022-12-27T00:44:43.420Z,2.17
2022-12-27T00:47:13.066Z,2.83
2022-12-27T00:49:42.369Z,2.57
2022-12-27T00:52:11.742Z,2.53
2022-12-27T00:54:43.676Z,2.80
2022-12-27T00:57:13.215Z,3.23
2022-12-27T00:59:42.484Z,2.20
2022-12-27T01:02:11.884Z,2.77
2022-12-27T01:04:41.884Z,3.13
2022-12-27T01:07:11.453Z,2.83
2022-12-27T01:09:43.478Z,3.23
2022-12-27T01:12:12.771Z,2.47
2022-12-27T01:14:42.259Z,3.13
2022-12-27T01:17:11.866Z,3.33
2022-12-27T01:19:41.607Z,2.90
2022-12-27T01:22:10.897Z,2.37
2022-12-27T01:24:42.826Z,2.60
2022-12-27T01:27:12.195Z,2.77
2022-12-27T01:29:41.903Z,3.40
2022-12-27T01:32:11.332Z,3.23
2022-12-27T01:34:40.631Z,3.90
2022-12-27T01:37:09.968Z,3.90
2022-12-27T01:39:39.242Z,3.27
2022-12-27T01:42:26.344Z,3.87
2022-12-27T01:44:59.509Z,3.47
2022-12-27T01:47:43.309Z,3.70
2022-12-27T01:50:15.527Z,3.90
2022-12-27T01:52:47.338Z,3.73
2022-12-27T01:55:20.437Z,3.47
2022-12-27T01:57:53.408Z,4.13
2022-12-27T02:00:23.851Z,4.93
2022-12-27T02:02:53.916Z,3.93
2022-12-27T02:05:23.826Z,4.13
2022-12-27T02:08:02.151Z,4.87
2022-12-27T02:10:31.875Z,4.37
2022-12-27T02:13:03.996Z,3.73
2022-12-27T02:15:33.340Z,3.90
2022-12-27T02:18:02.970Z,3.70
2022-12-27T02:20:35.225Z,3.67
2022-12-27T02:23:37.713Z,3.50
2022-12-27T02:26:22.740Z,3.30
2022-12-27T02:29:02.914Z,3.20
2022-12-27T02:31:34.446Z,3.23
2022-12-27T02:34:07.877Z,3.37
2022-12-27T02:36:38.295Z,3.20
2022-12-27T02:39:08.335Z,3.10
2022-12-27T02:41:50.671Z,2.83
2022-12-27T02:44:38.160Z,2.70
2022-12-27T02:47:20.562Z,2.83
2022-12-27T02:50:02.426Z,2.80
2022-12-27T02:52:48.380Z,2.97
2022-12-27T02:55:24.995Z,2.80
2022-12-27T02:58:01.196Z,2.90
2022-12-27T03:00:49.101Z,2.50
2022-12-27T03:03:24.819Z,2.60
2022-12-27T03:06:24.683Z,3.27
2022-12-27T03:08:56.803Z,2.43
2022-12-27T03:11:55.297Z,2.77
2022-12-27T03:14:40.708Z,2.43
2022-12-27T03:17:16.828Z,2.77
2022-12-27T03:20:00.182Z,2.60
2022-12-27T03:22:43.199Z,2.37
2022-12-27T03:25:25.690Z,2.80
2022-12-27T03:28:08.428Z,3.10
2022-12-27T03:30:51.452Z,2.63
2022-12-27T03:33:23.471Z,2.30
2022-12-27T03:36:07.708Z,2.40
2022-12-27T03:38:38.748Z,2.67
2022-12-27T03:41:22.690Z,3.37
2022-12-27T03:43:52.133Z,3.07
2022-12-27T03:46:34.862Z,2.53
2022-12-27T03:49:18.218Z,2.57
2022-12-27T03:51:50.194Z,2.70
2022-12-27T03:54:26.632Z,2.87
2022-12-27T03:56:57.376Z,2.70
2022-12-27T03:59:27.922Z,3.10
2022-12-27T04:01:57.583Z,3.13
2022-12-27T04:04:29.478Z,3.30
2022-12-27T04:06:58.841Z,2.80
2022-12-27T04:09:40.920Z,3.10
2022-12-27T04:12:23.088Z,3.00
2022-12-27T04:15:04.962Z,3.00
2022-12-27T04:17:47.001Z,3.53
2022-12-27T04:20:31.469Z,3.13
2022-12-27T04:23:13.644Z,2.83
2022-12-27T04:25:55.590Z,2.90
2022-12-27T04:28:39.131Z,2.77
2022-12-27T04:31:20.975Z,3.30
2022-12-27T04:34:03.011Z,3.17
2022-12-27T04:36:34.919Z,3.30
2022-12-27T04:39:04.489Z,2.67
2022-12-27T04:41:46.323Z,3.00
2022-12-27T04:44:28.205Z,3.50
2022-12-27T04:47:10.215Z,3.10
2022-12-27T04:49:53.572Z,2.97
2022-12-27T04:52:38.660Z,3.87
2022-12-27T04:55:14.789Z,3.00
2022-12-27T04:57:44.138Z,3.10
2022-12-27T05:00:26.655Z,2.83
2022-12-27T05:02:56.258Z,3.10
2022-12-27T05:05:25.699Z,3.20
2022-12-27T05:08:11.502Z,2.60
2022-12-27T05:10:54.315Z,3.13
2022-12-27T05:13:36.217Z,3.70
2022-12-27T05:16:05.925Z,3.60
2022-12-27T05:18:35.304Z,3.50
2022-12-27T05:21:05.459Z,3.13
2022-12-27T05:23:50.362Z,4.10
2022-12-27T05:26:23.476Z,3.60
2022-12-27T05:28:54.215Z,3.63
2022-12-27T05:31:24.713Z,3.73
2022-12-27T05:33:54.615Z,3.77
2022-12-27T05:36:24.037Z,3.70
2022-12-27T05:38:56.001Z,3.70
2022-12-27T05:41:25.352Z,4.40
2022-12-27T05:43:54.677Z,4.00
2022-12-27T05:46:24.651Z,3.87
2022-12-27T05:48:53.956Z,4.40
2022-12-27T05:51:23.879Z,4.03
2022-12-27T05:53:55.808Z,4.00
2022-12-27T05:56:25.122Z,4.10
2022-12-27T05:58:55.562Z,4.17
2022-12-27T06:01:25.022Z,3.57
2022-12-27T06:03:54.336Z,4.47
2022-12-27T06:06:23.801Z,3.97
2022-12-27T06:08:55.732Z,4.33
2022-12-27T06:11:25.047Z,4.07
2022-12-27T06:13:56.457Z,4.67
2022-12-27T06:16:26.607Z,4.50
2022-12-27T06:18:55.949Z,4.53
2022-12-27T06:21:25.233Z,4.87
2022-12-27T06:23:57.171Z,4.10
2022-12-27T06:26:27.645Z,4.20
2022-12-27T06:28:58.015Z,4.00
2022-12-27T06:31:28.134Z,4.47
2022-12-27T06:33:57.457Z,4.50
2022-12-27T06:36:27.780Z,4.37
2022-12-27T06:38:59.949Z,4.03
2022-12-27T06:41:29.335Z,4.23
2022-12-27T06:43:59.996Z,4.83
2022-12-27T06:46:29.399Z,5.10
2022-12-27T06:48:58.772Z,5.00
2022-12-27T06:51:28.059Z,5.10
2022-12-27T06:53:59.921Z,4.70
2022-12-27T06:56:29.356Z,5.13
2022-12-27T06:58:58.584Z,5.23
2022-12-27T07:01:28.880Z,4.90
2022-12-27T07:03:59.358Z,5.10
2022-12-27T07:06:29.389Z,5.07
2022-12-27T07:09:02.438Z,5.57
2022-12-27T07:11:34.263Z,5.73
2022-12-27T07:14:03.580Z,5.23
2022-12-27T07:16:32.961Z,5.53
2022-12-27T07:19:02.509Z,5.70
2022-12-27T07:21:31.882Z,5.73
2022-12-27T07:24:03.893Z,5.93
2022-12-27T07:26:33.277Z,6.13
2022-12-27T07:29:03.569Z,5.97
2022-12-27T07:31:34.420Z,5.83
2022-12-27T07:34:04.377Z,5.33
2022-12-27T07:36:35.956Z,5.77
2022-12-27T07:39:08.368Z,5.57
2022-12-27T07:41:38.490Z,6.73
2022-12-27T07:44:08.314Z,5.23
2022-12-27T07:46:37.544Z,5.93
2022-12-27T07:49:11.058Z,6.07
2022-12-27T07:51:43.119Z,7.00
2022-12-27T07:54:14.935Z,5.50
2022-12-27T07:56:44.223Z,6.37
2022-12-27T07:59:14.964Z,7.00
2022-12-27T08:01:56.952Z,6.80
2022-12-27T08:04:26.580Z,6.20
2022-12-27T08:07:04.798Z,6.20
2022-12-27T08:09:38.796Z,6.73
2022-12-27T08:12:08.762Z,6.20
2022-12-27T08:14:38.490Z,6.90
2022-12-27T08:17:08.755Z,7.60
2022-12-27T08:19:38.055Z,6.17
2022-12-27T08:22:07.992Z,5.70
2022-12-27T08:24:41.702Z,5.93
2022-12-27T08:27:11.112Z,5.93
2022-12-27T08:29:40.492Z,6.43
2022-12-27T08:32:09.856Z,6.20
2022-12-27T08:34:39.071Z,6.67
2022-12-27T08:37:08.357Z,6.20
2022-12-27T08:39:40.200Z,6.77
2022-12-27T08:42:09.513Z,6.53
2022-12-27T08:44:38.841Z,5.80
2022-12-27T08:47:08.180Z,6.20
2022-12-27T08:49:37.394Z,6.50
2022-12-27T08:52:06.970Z,7.20
2022-12-27T08:54:36.319Z,6.57
2022-12-27T08:57:08.792Z,6.90
2022-12-27T08:59:38.114Z,6.67
2022-12-27T09:02:07.559Z,6.50
2022-12-27T09:04:36.928Z,10.40
2022-12-27T09:07:06.244Z,7.90
2022-12-27T09:09:35.554Z,7.77
2022-12-27T09:12:09.091Z,8.67
2022-12-27T09:14:41.428Z,32.10
2022-12-27T09:17:11.152Z,31.00
2022-12-27T09:19:40.347Z,9.20
2022-12-27T09:22:09.647Z,6.37
2022-12-27T09:24:39.004Z,5.57
2022-12-27T09:27:08.263Z,6.37
2022-12-27T09:29:40.451Z,7.07
2022-12-27T09:32:15.024Z,6.43
2022-12-27T09:34:44.472Z,6.63
2022-12-27T09:37:13.783Z,5.53
2022-12-27T09:39:43.047Z,5.63
2022-12-27T09:45:16.980Z,6.23
2022-12-27T09:47:55.043Z,5.80
2022-12-27T09:50:28.290Z,5.07
2022-12-27T09:53:01.867Z,5.93
2022-12-27T09:55:38.991Z,5.20
2022-12-27T09:58:15.338Z,5.67
2022-12-27T10:00:46.324Z,5.37
2022-12-27T10:03:19.880Z,5.73
2022-12-27T10:05:56.374Z,5.40
2022-12-27T10:08:32.381Z,5.20
2022-12-27T10:11:03.960Z,4.63
2022-12-27T10:13:40.925Z,5.07
2022-12-27T10:16:15.338Z,5.27
2022-12-27T10:18:51.646Z,4.77
2022-12-27T10:21:23.727Z,5.13
2022-12-27T10:23:57.243Z,5.07
2022-12-27T10:26:26.667Z,5.27
2022-12-27T10:28:58.608Z,5.43
2022-12-27T10:31:28.275Z,4.33
2022-12-27T10:34:02.263Z,4.53
2022-12-27T10:36:33.497Z,4.90
2022-12-27T10:39:05.481Z,5.10
2022-12-27T10:41:41.282Z,5.63
2022-12-27T10:44:13.655Z,4.77
2022-12-27T10:46:44.642Z,4.90
2022-12-27T10:49:25.807Z,4.23
2022-12-27T10:51:56.993Z,4.33
2022-12-27T10:54:27.634Z,4.90
2022-12-27T10:56:57.273Z,3.97
2022-12-27T10:59:27.902Z,3.67
2022-12-27T11:02:17.338Z,3.93
2022-12-27T11:05:07.833Z,4.10
2022-12-27T11:07:40.859Z,3.77
2022-12-27T11:10:11.841Z,4.37
2022-12-27T11:12:41.484Z,3.80
2022-12-27T11:15:19.680Z,3.83
2022-12-27T11:17:51.672Z,4.23
2022-12-27T11:20:24.993Z,3.97
2022-12-27T11:22:58.493Z,3.83
2022-12-27T11:25:28.996Z,4.67
2022-12-27T11:27:59.752Z,4.07
2022-12-27T11:30:31.688Z,3.47
2022-12-27T11:33:04.607Z,3.73
2022-12-27T11:35:36.527Z,3.80
2022-12-27T11:38:08.442Z,4.43
2022-12-27T11:40:37.964Z,3.70
2022-12-27T11:43:09.970Z,5.00
2022-12-27T11:45:42.512Z,5.20
2022-12-27T11:48:21.451Z,5.00
2022-12-27T11:50:56.701Z,5.77
2022-12-27T11:53:41.336Z,4.80
2022-12-27T11:56:16.823Z,5.17
2022-12-27T11:58:52.438Z,4.20
2022-12-27T12:01:31.946Z,4.77
2022-12-27T12:04:16.420Z,4.57
2022-12-27T12:06:52.984Z,4.40
2022-12-27T12:09:37.943Z,4.20
2022-12-27T12:12:21.368Z,4.40
2022-12-27T12:15:01.939Z,4.47
2022-12-27T12:17:44.474Z,3.87
2022-12-27T12:20:19.990Z,4.23
2022-12-27T12:23:01.404Z,3.40
2022-12-27T12:25:43.117Z,3.42
2022-12-27T12:31:34.019Z,3.60
2022-12-27T12:34:11.256Z,4.07
2022-12-27T12:36:52.703Z,4.27
2022-12-27T12:39:27.072Z,4.45
2022-12-27T12:42:07.712Z,3.97
2022-12-27T12:44:47.386Z,4.53
2022-12-27T12:47:25.347Z,4.20
2022-12-27T12:50:13.425Z,4.40
2022-12-27T12:52:52.489Z,4.30
2022-12-27T12:55:34.955Z,5.03
2022-12-27T12:58:17.535Z,4.77
2022-12-27T13:00:59.450Z,4.90
2022-12-27T13:03:42.179Z,5.10
2022-12-27T13:06:20.036Z,4.80
2022-12-27T13:08:54.653Z,4.80
2022-12-27T13:11:32.863Z,4.67
2022-12-27T13:14:14.582Z,4.90
2022-12-27T13:16:48.344Z,5.33
2022-12-27T13:19:26.660Z,5.53
2022-12-27T13:22:00.997Z,5.20
2022-12-27T13:24:37.721Z,7.10
2022-12-27T13:27:09.668Z,6.90
2022-12-27T13:29:54.044Z,6.87
2022-12-27T13:32:32.947Z,5.23
2022-12-27T13:35:09.369Z,6.33
2022-12-27T13:37:42.852Z,5.83
2022-12-27T13:40:26.087Z,6.70
2022-12-27T13:43:08.464Z,5.97
2022-12-27T13:45:46.592Z,6.47
2022-12-27T13:48:30.474Z,6.80
2022-12-27T13:51:08.232Z,6.50
2022-12-27T13:53:55.483Z,6.23
2022-12-27T13:56:53.345Z,7.20
2022-12-27T13:59:36.757Z,6.53
2022-12-27T14:02:19.831Z,6.53
2022-12-27T14:05:04.538Z,6.37
2022-12-27T14:07:44.580Z,5.63
2022-12-27T14:10:17.799Z,6.57
2022-12-27T14:12:57.197Z,6.33
2022-12-27T14:15:31.481Z,6.17
2022-12-27T14:18:22.000Z,6.50
2022-12-27T14:21:03.033Z,6.80
2022-12-27T14:23:44.178Z,6.53
2022-12-27T14:26:31.077Z,7.40
2022-12-27T14:29:20.235Z,6.03
2022-12-27T14:31:59.669Z,6.80
2022-12-27T14:34:44.254Z,7.23
2022-12-27T14:37:28.673Z,7.77
2022-12-27T14:40:14.817Z,7.87
2022-12-27T14:43:01.873Z,8.83
2022-12-27T14:45:46.481Z,7.17
2022-12-27T14:48:35.142Z,7.10
2022-12-27T14:51:58.287Z,7.53
2022-12-27T14:54:22.182Z,7.37
2022-12-27T14:57:00.515Z,7.60
2022-12-27T14:59:36.616Z,7.40
2022-12-27T15:02:16.574Z,7.30
2022-12-27T15:04:52.900Z,8.03
2022-12-27T15:07:28.453Z,7.93
2022-12-27T15:10:04.204Z,7.80
2022-12-27T15:12:38.844Z,8.33
2022-12-27T15:15:26.101Z,8.50
2022-12-27T15:18:02.824Z,7.87
2022-12-27T15:20:43.932Z,8.53
2022-12-27T15:23:20.003Z,8.53
2022-12-27T15:25:55.679Z,8.77
2022-12-27T15:28:31.865Z,7.97
2022-12-27T15:31:04.116Z,9.00
2022-12-27T15:33:37.122Z,9.47
2022-12-27T15:36:08.434Z,8.67
2022-12-27T15:38:42.445Z,9.80
2022-12-27T15:41:16.478Z,9.27
2022-12-27T15:43:57.757Z,9.77
2022-12-27T15:46:39.540Z,35.00
2022-12-27T15:49:14.863Z,21.10
2022-12-27T15:51:47.977Z,12.87
2022-12-27T15:54:53.356Z,15.87
2022-12-27T15:57:30.772Z,11.43
2022-12-27T16:00:16.255Z,11.30
2022-12-27T16:02:56.532Z,10.27
2022-12-27T16:05:41.133Z,9.80
2022-12-27T16:08:25.748Z,9.90
2022-12-27T16:10:55.567Z,11.27
2022-12-27T16:13:42.794Z,12.67
2022-12-27T16:16:35.927Z,12.00
2022-12-27T16:19:24.960Z,12.30
2022-12-27T16:21:54.523Z,12.33
2022-12-27T16:24:26.853Z,11.57
2022-12-27T16:26:58.088Z,12.23
2022-12-27T16:29:29.952Z,11.90
2022-12-27T16:32:14.110Z,11.87
2022-12-27T16:34:46.923Z,11.63
2022-12-27T16:37:30.848Z,10.47
2022-12-27T16:40:09.449Z,11.80
2022-12-27T16:43:03.554Z,9.97
2022-12-27T16:45:36.473Z,10.43
2022-12-27T16:48:10.607Z,10.90
2022-12-27T16:51:00.972Z,10.23
2022-12-27T16:53:45.214Z,10.13
2022-12-27T16:56:22.503Z,8.87
2022-12-27T16:58:51.885Z,8.47
2022-12-27T17:01:31.623Z,8.37
2022-12-27T17:04:01.228Z,8.20
2022-12-27T17:06:45.746Z,8.53
2022-12-27T17:09:33.984Z,8.70
2022-12-27T17:12:09.260Z,8.70
2022-12-27T17:14:39.419Z,7.87
2022-12-27T17:17:11.869Z,7.77
2022-12-27T17:19:43.209Z,7.27
2022-12-27T17:22:15.854Z,7.60
2022-12-27T17:24:46.189Z,7.10
2022-12-27T17:27:22.503Z,7.50
2022-12-27T17:30:00.855Z,6.97
2022-12-27T17:32:37.181Z,8.07
2022-12-27T17:35:10.001Z,6.57
2022-12-27T17:37:43.134Z,6.30
2022-12-27T17:40:19.485Z,6.77
2022-12-27T17:43:09.308Z,6.67
2022-12-27T17:45:42.833Z,6.80
2022-12-27T17:48:21.895Z,6.10
2022-12-27T17:50:54.568Z,6.27
2022-12-27T17:53:37.245Z,6.63
2022-12-27T17:56:28.628Z,6.00
2022-12-27T17:59:03.912Z,6.27
2022-12-27T18:01:34.234Z,5.53
2022-12-27T18:04:04.251Z,5.70
2022-12-27T18:06:35.570Z,5.53
2022-12-27T18:09:05.313Z,5.40
2022-12-27T18:11:35.746Z,5.10
2022-12-27T18:14:07.694Z,4.83
2022-12-27T18:16:40.235Z,5.47
2022-12-27T18:19:09.653Z,5.20
2022-12-27T18:21:38.985Z,4.87
2022-12-27T18:24:20.329Z,4.63
2022-12-27T18:26:49.680Z,4.80
2022-12-27T18:29:21.664Z,4.43
2022-12-27T18:31:51.629Z,5.13
2022-12-27T18:34:24.830Z,4.07
2022-12-27T18:36:58.940Z,4.73
2022-12-27T18:39:31.645Z,4.67
2022-12-27T18:42:02.154Z,4.33
2022-12-27T18:44:37.277Z,4.10
2022-12-27T18:47:07.006Z,4.40
2022-12-27T18:49:37.541Z,4.63
2022-12-27T18:52:14.615Z,6.63
2022-12-27T18:54:44.221Z,3.80
2022-12-27T18:57:28.979Z,3.60
2022-12-27T19:00:07.444Z,3.70
2022-12-27T19:02:37.839Z,4.07
2022-12-27T19:05:17.851Z,3.77
2022-12-27T19:07:47.702Z,3.97
2022-12-27T19:10:19.059Z,5.13
2022-12-27T19:12:49.288Z,4.10
2022-12-27T19:15:22.714Z,4.10
2022-12-27T19:17:53.075Z,3.93
2022-12-27T19:20:24.506Z,3.47
2022-12-27T19:22:55.408Z,3.80
2022-12-27T19:25:26.602Z,3.70
2022-12-27T19:28:13.875Z,3.77
2022-12-27T19:30:46.677Z,3.60
2022-12-27T19:33:18.313Z,3.40
2022-12-27T19:35:47.741Z,3.20
2022-12-27T19:38:21.538Z,3.40
2022-12-27T19:40:54.375Z,3.37
2022-12-27T19:43:28.651Z,3.17
2022-12-27T19:46:00.519Z,3.07
2022-12-27T19:48:30.100Z,4.83
2022-12-27T19:50:59.322Z,3.57
2022-12-27T19:53:32.572Z,3.33
2022-12-27T19:56:03.506Z,3.73
2022-12-27T19:58:33.133Z,3.90
2022-12-27T20:01:05.222Z,4.20
2022-12-27T20:03:34.988Z,3.70
2022-12-27T20:06:14.080Z,4.20
2022-12-27T20:08:51.556Z,3.40
2022-12-27T20:11:21.837Z,3.70
2022-12-27T20:13:51.722Z,3.73
2022-12-27T20:16:23.638Z,4.20
2022-12-27T20:18:52.996Z,4.23
2022-12-27T20:21:23.408Z,3.93
2022-12-27T20:23:52.849Z,4.10
2022-12-27T20:26:23.558Z,5.03
2022-12-27T20:28:53.599Z,5.50
2022-12-27T20:31:25.671Z,4.63
2022-12-27T20:33:56.129Z,6.07
2022-12-27T20:36:25.937Z,5.67
2022-12-27T20:38:55.267Z,5.50
2022-12-27T20:41:24.946Z,5.67
2022-12-27T20:43:56.935Z,6.20
2022-12-27T20:46:29.024Z,5.73
2022-12-27T20:48:59.231Z,5.60
2022-12-27T20:51:31.767Z,5.27
2022-12-27T20:54:02.074Z,5.60
2022-12-27T20:56:31.513Z,5.97
2022-12-27T20:59:01.615Z,5.83
2022-12-27T21:01:33.757Z,5.97
2022-12-27T21:04:03.183Z,5.40
2022-12-27T21:06:32.507Z,4.93
2022-12-27T21:09:02.068Z,5.67
2022-12-27T21:11:33.074Z,6.00
2022-12-27T21:14:03.030Z,5.10
2022-12-27T21:16:35.778Z,4.83
2022-12-27T21:19:05.587Z,4.33
2022-12-27T21:21:35.918Z,3.93
2022-12-27T21:24:05.693Z,4.07
2022-12-27T21:26:36.223Z,4.60
2022-12-27T21:29:07.248Z,4.00
2022-12-27T21:31:39.362Z,4.43
2022-12-27T21:34:08.807Z,3.83
2022-12-27T21:36:38.834Z,3.87
2022-12-27T21:39:08.780Z,3.93
2022-12-27T21:41:39.051Z,3.93
2022-12-27T21:44:08.503Z,3.80
2022-12-27T21:46:41.570Z,3.83
2022-12-27T21:49:12.504Z,3.70
2022-12-27T21:51:44.452Z,4.00
2022-12-27T21:54:14.064Z,3.83
2022-12-27T21:56:43.451Z,3.70
2022-12-27T21:59:13.505Z,3.47
2022-12-27T22:01:50.100Z,3.70
2022-12-27T22:04:21.810Z,4.20
2022-12-27T22:06:51.313Z,4.57
2022-12-27T22:09:20.826Z,4.00
2022-12-27T22:11:50.139Z,3.90
2022-12-27T22:14:23.478Z,4.63
2022-12-27T22:17:00.044Z,4.77
2022-12-27T22:19:32.124Z,4.60
2022-12-27T22:22:01.405Z,4.27
2022-12-27T22:24:30.685Z,4.17
2022-12-27T22:27:00.171Z,4.50
2022-12-27T22:29:34.993Z,5.00
2022-12-27T22:35:07.285Z,4.70
2022-12-27T22:37:36.692Z,4.20
2022-12-27T22:40:06.437Z,5.23
2022-12-27T22:42:57.638Z,4.40
2022-12-27T22:45:26.940Z,4.90
2022-12-27T22:47:58.890Z,5.10
2022-12-27T22:50:28.211Z,5.33
2022-12-27T22:52:57.387Z,4.93
2022-12-27T22:55:26.749Z,5.67
2022-12-27T22:57:56.043Z,4.93
2022-12-27T23:00:25.443Z,4.27
2022-12-27T23:02:54.696Z,4.23
2022-12-27T23:05:26.608Z,5.00
2022-12-27T23:08:04.061Z,3.60
2022-12-27T23:10:38.519Z,3.93
2022-12-27T23:13:07.845Z,4.47
2022-12-27T23:15:38.602Z,3.67
2022-12-27T23:18:11.060Z,4.07
2022-12-27T23:21:19.060Z,3.10
2022-12-27T23:23:32.514Z,3.23
2022-12-27T23:26:06.115Z,3.37
2022-12-27T23:28:37.704Z,3.67
2022-12-27T23:31:11.132Z,3.60
2022-12-27T23:33:42.972Z,3.60
2022-12-27T23:36:15.360Z,3.37
2022-12-27T23:38:45.138Z,3.80
2022-12-27T23:41:16.984Z,3.27
2022-12-27T23:43:55.489Z,3.40
2022-12-27T23:46:27.470Z,2.93
2022-12-27T23:48:57.562Z,3.33
2022-12-27T23:51:29.641Z,3.23
2022-12-27T23:53:59.224Z,3.23
2022-12-27T23:56:31.658Z,3.13
2022-12-27T23:59:02.181Z,3.03
